Time;durP1;ratioP1;P1;durP2;ratioP2;P2;SDS_P1;SDS_P2;PMS_P1;PMS_P2;Temp;Humidity;BMP_temperature;BMP_pressure;BME280_temperature;BME280_humidity;BME280_pressure;Samples;Min_cycle;Max_cycle;Signal;HPM_P1;HPM_P2
2023/08/03 00:00:00;;;;;;;2.95;2.65;;;;;;;19.37;100.00;98009.84;5050408;28;20465;-85
2023/08/03 00:02:26;;;;;;;3.35;3.05;;;;;;;19.24;100.00;97977.06;5066366;28;20025;-85
2023/08/03 00:04:51;;;;;;;3.20;2.72;;;;;;;19.32;100.00;97969.13;5056077;28;20021;-86
2023/08/03 00:07:17;;;;;;;2.53;2.33;;;;;;;19.23;100.00;97936.63;5038505;28;20029;-85
2023/08/03 00:09:46;;;;;;;3.83;3.13;;;;;;;19.26;100.00;97927.56;5055819;28;20028;-85
2023/08/03 00:12:11;;;;;;;2.88;2.58;;;;;;;19.43;100.00;97952.94;5056046;28;20041;-85
2023/08/03 00:14:36;;;;;;;5.45;2.80;;;;;;;19.21;100.00;97922.78;5056071;28;20179;-85
2023/08/03 00:17:02;;;;;;;2.60;2.40;;;;;;;19.37;100.00;97943.84;5055565;28;20369;-85
2023/08/03 00:19:27;;;;;;;2.65;2.45;;;;;;;19.26;100.00;97933.69;5055752;28;20071;-85
2023/08/03 00:21:52;;;;;;;3.67;2.85;;;;;;;19.22;100.00;97898.06;5055480;28;20045;-86
2023/08/03 00:24:18;;;;;;;2.53;2.30;;;;;;;19.11;100.00;97895.75;5055581;28;20357;-85
2023/08/03 00:26:43;;;;;;;2.40;2.13;;;;;;;19.25;100.00;97928.53;5037509;28;20499;-85
2023/08/03 00:29:08;;;;;;;3.05;2.75;;;;;;;19.24;100.00;97882.03;5055428;28;20029;-85
2023/08/03 00:31:34;;;;;;;3.17;2.75;;;;;;;19.25;100.00;97881.03;5055469;28;20032;-86
2023/08/03 00:33:59;;;;;;;3.13;2.30;;;;;;;19.10;100.00;97897.56;5055081;28;20029;-85
2023/08/03 00:36:24;;;;;;;2.97;2.55;;;;;;;19.09;100.00;97877.47;5055687;28;20025;-85
2023/08/03 00:38:50;;;;;;;5.22;2.83;;;;;;;19.11;100.00;97904.50;5037191;28;20036;-85
2023/08/03 00:41:15;;;;;;;4.30;2.40;;;;;;;19.11;100.00;97893.13;5055149;28;20021;-85
2023/08/03 00:43:41;;;;;;;3.05;1.98;;;;;;;19.26;100.00;97930.22;5037034;28;20171;-85
2023/08/03 00:46:06;;;;;;;3.13;2.65;;;;;;;19.09;100.00;97866.09;5055161;28;20032;-85
2023/08/03 00:48:32;;;;;;;3.10;2.72;;;;;;;18.99;100.00;97828.50;5055475;28;20025;-85
2023/08/03 00:50:57;;;;;;;3.67;2.35;;;;;;;19.22;100.00;97924.44;5054936;28;20029;-85
2023/08/03 00:53:23;;;;;;;2.40;2.20;;;;;;;19.07;100.00;97911.09;5055307;28;20044;-85
2023/08/03 00:55:48;;;;;;;3.50;2.47;;;;;;;19.23;100.00;97931.38;5054810;28;20028;-85
2023/08/03 00:58:13;;;;;;;3.05;2.50;;;;;;;19.12;100.00;97915.88;5054946;28;20031;-85
2023/08/03 01:00:39;;;;;;;5.75;2.72;;;;;;;19.25;100.00;97941.75;5055558;28;20414;-85
2023/08/03 01:03:04;;;;;;;2.40;2.20;;;;;;;18.94;100.00;97877.31;5054777;28;20425;-85
2023/08/03 01:05:32;;;;;;;3.28;2.28;;;;;;;19.32;100.00;97937.44;5054957;28;20099;-85
2023/08/03 01:07:57;;;;;;;2.78;2.53;;;;;;;19.09;100.00;97895.94;5054522;28;20098;-85
2023/08/03 01:10:23;;;;;;;3.67;2.45;;;;;;;19.10;100.00;97889.66;5054646;28;20468;-85
2023/08/03 01:12:48;;;;;;;2.90;2.60;;;;;;;19.09;100.00;97895.13;5054215;28;20053;-85
2023/08/03 01:15:14;;;;;;;3.25;2.60;;;;;;;19.03;100.00;97888.69;5054440;28;20021;-85
2023/08/03 01:17:39;;;;;;;2.45;2.20;;;;;;;19.22;100.00;97916.53;5036332;28;20025;-85
2023/08/03 01:20:05;;;;;;;2.90;2.60;;;;;;;19.24;100.00;97911.88;5054262;28;20032;-85
2023/08/03 01:22:37;;;;;;;2.35;2.15;;;;;;;19.09;100.00;97893.31;5036519;28;20029;-85
2023/08/03 01:25:02;;;;;;;2.67;2.28;;;;;;;19.31;100.00;97912.06;5054367;28;20032;-85
2023/08/03 01:27:27;;;;;;;2.50;2.30;;;;;;;19.28;100.00;97912.38;5054306;28;20025;-86
2023/08/03 01:29:53;;;;;;;2.70;2.35;;;;;;;19.16;100.00;97901.34;5054074;28;20032;-85
2023/08/03 01:32:18;;;;;;;3.22;2.47;;;;;;;19.13;100.00;97899.88;5036556;28;20068;-85
2023/08/03 01:34:43;;;;;;;3.30;2.40;;;;;;;19.04;100.00;97876.31;5036436;28;20025;-85
2023/08/03 01:37:09;;;;;;;2.10;1.90;;;;;;;19.07;100.00;97874.16;5036092;28;20036;-85
2023/08/03 01:39:34;;;;;;;2.70;2.42;;;;;;;19.10;100.00;97876.47;5054110;28;20025;-86
2023/08/03 01:41:59;;;;;;;3.90;2.88;;;;;;;19.21;100.00;97893.75;5035777;28;20433;-85
2023/08/03 01:44:27;;;;;;;2.33;2.03;;;;;;;19.02;100.00;97884.41;5054368;28;20028;-85
2023/08/03 01:46:54;;;;;;;2.10;1.90;;;;;;;19.20;100.00;97908.75;5053831;28;20025;-85
2023/08/03 01:49:20;;;;;;;2.20;2.00;;;;;;;19.24;100.00;97916.34;5054140;28;20541;-85
2023/08/03 01:51:46;;;;;;;2.60;2.30;;;;;;;19.25;100.00;97918.81;5053814;28;20032;-85
2023/08/03 01:54:12;;;;;;;2.80;2.50;;;;;;;19.23;100.00;97912.88;5053683;28;20035;-85
2023/08/03 01:56:37;;;;;;;3.35;2.22;;;;;;;19.28;100.00;97931.69;5054034;28;20103;-85
2023/08/03 01:59:03;;;;;;;2.83;2.30;;;;;;;19.14;100.00;97912.09;5035791;28;20508;-85
2023/08/03 02:01:28;;;;;;;4.40;2.60;;;;;;;19.02;100.00;97896.78;5035864;28;20029;-85
2023/08/03 02:03:54;;;;;;;2.78;2.55;;;;;;;19.03;100.00;97898.41;5053385;28;20104;-85
2023/08/03 02:06:20;;;;;;;3.42;2.80;;;;;;;19.09;100.00;97903.84;5053689;28;20033;-85
2023/08/03 02:08:45;;;;;;;3.08;2.75;;;;;;;18.88;100.00;97877.19;5053992;28;20075;-85
2023/08/03 02:11:11;;;;;;;3.25;2.72;;;;;;;19.18;100.00;97912.56;5053389;28;20394;-85
2023/08/03 02:13:36;;;;;;;2.85;2.58;;;;;;;19.16;100.00;97909.25;5035645;28;20377;-85
2023/08/03 02:16:03;;;;;;;3.08;2.80;;;;;;;18.87;100.00;97863.13;5053408;28;20029;-85
2023/08/03 02:18:29;;;;;;;3.40;2.47;;;;;;;19.29;100.00;97927.22;5035495;28;20358;-85
2023/08/03 02:20:55;;;;;;;3.22;2.75;;;;;;;19.23;100.00;97917.34;5053068;28;20033;-85
2023/08/03 02:23:21;;;;;;;2.95;2.70;;;;;;;19.12;100.00;97898.22;5053387;28;20484;-85
2023/08/03 02:25:46;;;;;;;2.70;2.08;;;;;;;19.20;100.00;97914.03;5053190;28;20029;-85
2023/08/03 02:28:11;;;;;;;3.13;2.50;;;;;;;19.16;100.00;97912.72;5052151;28;20029;-85
2023/08/03 02:30:39;;;;;;;3.42;2.70;;;;;;;19.25;100.00;97928.53;5053511;28;20048;-85
2023/08/03 02:33:04;;;;;;;5.30;2.88;;;;;;;19.24;100.00;97937.47;5035079;28;20079;-85
2023/08/03 02:35:29;;;;;;;2.70;2.50;;;;;;;19.22;100.00;97940.28;5035179;28;20064;-85
2023/08/03 02:37:55;;;;;;;2.78;2.42;;;;;;;19.16;100.00;97938.28;5052951;28;20040;-85
2023/08/03 02:40:20;;;;;;;3.35;2.90;;;;;;;19.20;100.00;97945.72;5053288;28;20029;-85
2023/08/03 02:42:46;;;;;;;3.40;3.10;;;;;;;19.16;100.00;97944.41;5053103;28;20542;-85
2023/08/03 02:45:11;;;;;;;3.47;2.65;;;;;;;19.02;100.00;97923.97;5035215;28;20492;-85
2023/08/03 02:47:37;;;;;;;4.28;2.35;;;;;;;18.94;100.00;97913.44;5053426;28;20059;-85
2023/08/03 02:50:03;;;;;;;2.80;2.60;;;;;;;18.84;100.00;97904.88;5034869;28;20123;-85
2023/08/03 02:52:29;;;;;;;2.60;2.40;;;;;;;18.91;100.00;97919.84;5052868;28;20033;-85
2023/08/03 02:54:54;;;;;;;2.80;2.60;;;;;;;18.70;100.00;97888.72;5052476;28;20033;-85
2023/08/03 02:57:19;;;;;;;2.72;2.53;;;;;;;18.85;100.00;97909.97;5034855;28;20025;-85
2023/08/03 02:59:45;;;;;;;2.50;2.30;;;;;;;19.05;100.00;97957.13;5052527;28;20033;-85
2023/08/03 03:02:10;;;;;;;3.83;2.83;;;;;;;18.79;100.00;97918.53;5052270;28;20025;-85
2023/08/03 03:04:36;;;;;;;4.07;2.65;;;;;;;19.09;100.00;97985.66;5052629;28;20033;-85
2023/08/03 03:07:01;;;;;;;2.97;2.72;;;;;;;19.06;100.00;97985.97;5034624;28;20033;-85
2023/08/03 03:09:26;;;;;;;2.55;2.35;;;;;;;18.84;100.00;97957.63;5052650;28;20483;-85
2023/08/03 03:11:55;;;;;;;2.92;2.60;;;;;;;18.88;100.00;97965.06;5052756;28;20104;-85
2023/08/03 03:14:23;;;;;;;3.50;3.00;;;;;;;19.04;100.00;97982.66;5052781;28;20518;-85
2023/08/03 03:16:49;;;;;;;2.97;2.47;;;;;;;19.03;100.00;97986.31;5052442;28;20040;-85
2023/08/03 03:19:14;;;;;;;2.85;2.50;;;;;;;18.83;100.00;97974.44;5052251;28;20029;-85
2023/08/03 03:21:39;;;;;;;3.03;2.50;;;;;;;18.79;100.00;97971.28;5034306;28;20499;-85
2023/08/03 03:24:05;;;;;;;3.13;2.30;;;;;;;18.69;100.00;97962.69;5051855;28;20021;-85
2023/08/03 03:26:30;;;;;;;3.00;2.58;;;;;;;19.01;100.00;98019.13;5052478;28;20461;-86
2023/08/03 03:28:56;;;;;;;3.03;2.78;;;;;;;18.95;100.00;97995.03;5052311;28;20035;-85
2023/08/03 03:31:21;;;;;;;2.85;2.55;;;;;;;19.06;100.00;98033.47;5052386;28;20052;-85
2023/08/03 03:33:46;;;;;;;2.92;2.63;;;;;;;19.08;100.00;98020.94;5034473;28;20029;-85
2023/08/03 03:36:12;;;;;;;2.72;2.50;;;;;;;19.00;100.00;97988.44;5052104;28;20108;-85
2023/08/03 03:38:38;;;;;;;3.90;2.88;;;;;;;18.88;100.00;97969.50;5051664;28;20033;-86
2023/08/03 03:41:03;;;;;;;3.83;3.00;;;;;;;19.03;100.00;97991.59;5034034;28;20049;-85
2023/08/03 03:43:28;;;;;;;3.40;2.83;;;;;;;18.99;100.00;97971.78;5034106;28;20116;-85
2023/08/03 03:45:54;;;;;;;4.28;3.38;;;;;;;19.04;100.00;97931.72;5052453;28;20464;-85
2023/08/03 03:48:19;;;;;;;4.93;2.72;;;;;;;19.01;100.00;97998.03;5051746;28;20057;-85
2023/08/03 03:50:44;;;;;;;2.90;2.60;;;;;;;18.91;100.00;97966.50;5051932;28;20021;-85
2023/08/03 03:53:10;;;;;;;3.30;2.55;;;;;;;18.69;100.00;97970.59;5051478;28;20029;-85
2023/08/03 03:55:35;;;;;;;4.15;2.90;;;;;;;18.96;100.00;98027.53;5051988;28;20021;-85
2023/08/03 03:58:02;;;;;;;3.53;2.45;;;;;;;19.05;100.00;97996.72;5051726;28;20029;-85
2023/08/03 04:00:28;;;;;;;3.10;2.80;;;;;;;18.86;100.00;97974.94;5051906;28;20025;-85
2023/08/03 04:02:53;;;;;;;3.10;2.50;;;;;;;19.03;100.00;98041.72;5051810;28;20025;-85
2023/08/03 04:05:18;;;;;;;4.32;2.47;;;;;;;18.76;100.00;98003.28;5051485;28;20029;-86
2023/08/03 04:07:44;;;;;;;4.03;2.78;;;;;;;18.98;100.00;98045.84;5033658;28;20120;-86
2023/08/03 04:10:09;;;;;;;4.38;2.97;;;;;;;19.00;100.00;98030.66;5033849;28;20025;-86
2023/08/03 04:12:35;;;;;;;3.33;2.72;;;;;;;19.15;100.00;98039.56;5034027;28;20028;-86
2023/08/03 04:15:00;;;;;;;3.08;2.80;;;;;;;19.20;100.00;98027.53;5051660;28;20021;-86
2023/08/03 04:17:25;;;;;;;3.00;2.70;;;;;;;19.07;100.00;98013.19;5051999;28;20033;-86
2023/08/03 04:19:51;;;;;;;3.28;2.55;;;;;;;19.18;100.00;98052.44;5051752;28;20033;-85
2023/08/03 04:22:16;;;;;;;2.88;2.58;;;;;;;19.13;100.00;98054.72;5051211;28;20380;-86
2023/08/03 04:24:41;;;;;;;3.75;2.80;;;;;;;19.01;100.00;98041.06;5033660;28;20384;-86
2023/08/03 04:27:07;;;;;;;3.75;2.92;;;;;;;18.96;100.00;98032.78;5051803;28;20033;-86
2023/08/03 04:29:32;;;;;;;3.15;2.70;;;;;;;19.08;100.00;98046.50;5051920;28;20025;-86
2023/08/03 04:31:57;;;;;;;2.72;2.30;;;;;;;19.08;100.00;98031.47;5051587;28;20094;-86
2023/08/03 04:34:23;;;;;;;3.28;2.60;;;;;;;19.13;100.00;98007.22;5051173;28;20457;-86
2023/08/03 04:36:48;;;;;;;3.10;2.80;;;;;;;19.20;100.00;98030.16;5051318;28;20053;-86
2023/08/03 04:39:14;;;;;;;2.67;2.47;;;;;;;19.17;100.00;98033.16;5033432;28;20049;-85
2023/08/03 04:41:39;;;;;;;2.72;2.40;;;;;;;19.38;100.00;98066.13;5033805;28;20060;-85
2023/08/03 04:44:04;;;;;;;3.08;2.53;;;;;;;19.20;100.00;98014.34;5033709;28;20024;-86
2023/08/03 04:46:30;;;;;;;4.75;2.50;;;;;;;19.24;100.00;98017.47;5034122;28;20032;-86
2023/08/03 04:48:55;;;;;;;3.55;2.65;;;;;;;19.13;100.00;97994.03;5051787;28;20021;-86
2023/08/03 04:51:20;;;;;;;3.30;2.90;;;;;;;19.41;100.00;98066.63;5052864;28;20122;-85
2023/08/03 04:53:46;;;;;;;3.65;3.00;;;;;;;19.10;100.00;98037.44;5038575;28;20040;-86
2023/08/03 04:56:11;;;;;;;5.57;2.80;;;;;;;19.15;100.00;98045.69;5056036;28;20060;-86
2023/08/03 04:58:36;;;;;;;3.70;2.63;;;;;;;19.31;100.00;98060.69;5056511;28;20071;-86
2023/08/03 05:01:01;;;;;;;2.78;2.45;;;;;;;19.50;100.00;98093.84;5038903;28;20021;-86
2023/08/03 05:03:27;;;;;;;3.90;2.35;;;;;;;19.58;100.00;98069.25;5038267;28;20032;-86
2023/08/03 05:05:52;;;;;;;2.55;2.22;;;;;;;19.56;100.00;98055.41;5058911;28;20025;-86
2023/08/03 05:08:18;;;;;;;3.88;2.50;;;;;;;19.62;100.00;98095.19;5065523;28;20024;-85
2023/08/03 05:10:43;;;;;;;2.53;2.13;;;;;;;19.57;100.00;98052.56;5047779;28;20415;-86
2023/08/03 05:13:09;;;;;;;4.15;2.63;;;;;;;19.49;100.00;98060.50;5043560;28;20056;-86
2023/08/03 05:15:34;;;;;;;3.92;2.40;;;;;;;19.40;100.00;98066.78;5051350;28;20093;-85
2023/08/03 05:18:01;;;;;;;3.70;2.80;;;;;;;19.43;100.00;98075.22;5051499;28;20048;-86
2023/08/03 05:20:27;;;;;;;2.67;2.25;;;;;;;19.47;100.00;98072.22;5044726;28;20037;-86
2023/08/03 05:22:52;;;;;;;2.85;2.33;;;;;;;19.49;100.00;98075.53;5035265;28;20051;-86
2023/08/03 05:25:18;;;;;;;3.38;2.60;;;;;;;19.53;100.00;98085.59;5034592;28;20029;-86
2023/08/03 05:27:43;;;;;;;2.60;2.40;;;;;;;19.39;100.00;98058.06;5033324;28;20384;-86
2023/08/03 05:30:09;;;;;;;3.95;2.42;;;;;;;19.50;100.00;98063.97;5034624;28;20582;-85
2023/08/03 05:32:34;;;;;;;2.70;2.22;;;;;;;19.38;100.00;98047.63;5033061;28;20028;-85
2023/08/03 05:35:00;;;;;;;2.70;2.30;;;;;;;19.34;100.00;98030.47;5034361;28;20091;-85
2023/08/03 05:37:25;;;;;;;4.72;2.85;;;;;;;19.68;100.00;98068.13;5033955;28;20071;-85
2023/08/03 05:39:51;;;;;;;2.63;2.13;;;;;;;19.45;100.00;98023.03;5034479;28;20056;-86
2023/08/03 05:42:17;;;;;;;3.10;2.42;;;;;;;19.62;100.00;98049.47;5032706;28;20022;-85
2023/08/03 05:44:43;;;;;;;2.65;2.42;;;;;;;19.89;100.00;98058.84;5034107;28;20033;-85
2023/08/03 05:47:10;;;;;;;4.07;2.28;;;;;;;20.44;100.00;98069.34;5034025;28;20113;-85
2023/08/03 05:49:36;;;;;;;4.95;2.80;;;;;;;21.05;100.00;98055.47;5034046;28;20045;-85
2023/08/03 05:52:02;;;;;;;2.78;2.58;;;;;;;21.55;100.00;98036.34;5034037;28;20033;-85
2023/08/03 05:54:28;;;;;;;4.95;2.40;;;;;;;22.08;100.00;98078.69;5034574;28;20419;-85
2023/08/03 05:56:53;;;;;;;3.85;2.50;;;;;;;22.01;100.00;98078.63;5033817;28;20029;-85
2023/08/03 05:59:21;;;;;;;3.15;2.03;;;;;;;22.00;100.00;98063.72;5032398;28;20055;-86
2023/08/03 06:01:51;;;;;;;3.20;2.28;;;;;;;22.20;99.91;98101.13;5033454;28;20461;-86
2023/08/03 06:04:17;;;;;;;4.97;2.53;;;;;;;22.40;99.58;98112.81;5032229;28;20026;-85
2023/08/03 06:06:43;;;;;;;3.95;2.17;;;;;;;22.42;96.88;98112.66;5034022;28;20036;-86
2023/08/03 06:09:11;;;;;;;3.50;2.20;;;;;;;22.36;96.16;98124.00;5032432;28;20385;-86
2023/08/03 06:11:38;;;;;;;4.07;2.17;;;;;;;22.21;96.48;98117.88;5032611;28;20033;-86
2023/08/03 06:14:05;;;;;;;2.45;2.25;;;;;;;22.14;96.47;98133.69;5048083;28;20095;-86
2023/08/03 06:16:30;;;;;;;2.75;2.13;;;;;;;22.13;96.65;98138.16;5035279;28;20024;-86
2023/08/03 06:19:00;;;;;;;4.88;2.13;;;;;;;22.09;96.57;98130.72;5053361;28;20033;-86
2023/08/03 06:21:27;;;;;;;3.55;2.00;;;;;;;22.11;96.58;98134.00;5053004;28;20029;-86
2023/08/03 06:23:55;;;;;;;2.63;1.90;;;;;;;22.05;96.81;98140.06;5053906;28;20041;-85
2023/08/03 06:26:21;;;;;;;4.35;3.00;;;;;;;21.99;96.81;98146.88;5035232;28;20021;-86
2023/08/03 06:28:50;;;;;;;4.93;2.20;;;;;;;21.88;96.69;98150.00;5053235;28;20075;-86
2023/08/03 06:31:17;;;;;;;5.35;2.38;;;;;;;21.88;97.52;98150.00;5053036;28;20029;-85
2023/08/03 06:33:44;;;;;;;3.45;2.08;;;;;;;21.82;97.57;98142.75;5053271;28;20361;-86
2023/08/03 06:36:20;;;;;;;4.90;2.53;;;;;;;21.37;98.03;98081.72;5053129;28;20486;-86
2023/08/03 06:38:46;;;;;;;3.10;2.15;;;;;;;21.65;97.86;98137.59;5053096;28;20025;-86
2023/08/03 06:41:12;;;;;;;5.65;2.67;;;;;;;21.63;97.86;98146.72;5052579;28;20480;-86
2023/08/03 06:43:37;;;;;;;3.65;2.60;;;;;;;21.55;97.78;98141.50;5052833;28;20040;-86
2023/08/03 06:46:04;;;;;;;5.93;3.22;;;;;;;21.42;98.20;98115.59;5034863;28;20027;-85
2023/08/03 06:48:29;;;;;;;4.28;2.60;;;;;;;21.23;98.30;98076.31;5053112;28;20430;-85
2023/08/03 06:50:55;;;;;;;3.08;2.22;;;;;;;21.21;99.09;98078.34;5052939;28;20021;-86
2023/08/03 06:53:21;;;;;;;3.78;2.40;;;;;;;21.11;99.07;98078.56;5052648;28;20098;-86
2023/08/03 06:55:48;;;;;;;5.40;2.60;;;;;;;21.46;98.81;98148.69;5052906;28;20033;-86
2023/08/03 06:58:13;;;;;;;3.15;2.60;;;;;;;;;;5034556;28;20071;-86
2023/08/03 07:00:41;;;;;;;3.38;2.40;;;;;;;21.59;97.33;98150.75;5052560;28;20500;-85
2023/08/03 07:03:07;;;;;;;3.08;2.30;;;;;;;21.62;97.51;98151.22;5034879;28;20029;-85
2023/08/03 07:05:32;;;;;;;2.40;2.10;;;;;;;21.67;97.32;98159.44;5052456;28;20025;-86
2023/08/03 07:07:57;;;;;;;2.78;2.33;;;;;;;21.52;96.80;98123.31;5034705;28;20028;-85
2023/08/03 07:10:23;;;;;;;3.30;2.13;;;;;;;21.61;95.92;98128.34;5052655;28;20043;-86
2023/08/03 07:12:48;;;;;;;5.32;2.30;;;;;;;21.75;95.91;98155.91;5052466;28;20053;-86
2023/08/03 07:15:13;;;;;;;6.43;2.67;;;;;;;21.78;94.98;98150.22;5033548;28;20029;-86
2023/08/03 07:17:39;;;;;;;2.80;2.50;;;;;;;21.88;94.94;98166.72;5052946;28;20082;-86
2023/08/03 07:20:07;;;;;;;4.57;2.35;;;;;;;21.54;94.29;98116.00;5053020;28;20383;-86
2023/08/03 07:22:33;;;;;;;6.32;2.53;;;;;;;21.51;93.67;98117.19;5051970;28;20441;-86
2023/08/03 07:24:58;;;;;;;4.40;2.78;;;;;;;21.43;93.35;98118.06;5052386;28;20036;-86
2023/08/03 07:27:23;;;;;;;3.25;2.28;;;;;;;21.71;94.18;98146.66;5051980;28;20489;-86
2023/08/03 07:29:49;;;;;;;4.70;2.28;;;;;;;22.20;92.78;98134.78;5034280;28;20551;-86
2023/08/03 07:32:14;;;;;;;3.88;2.95;;;;;;;22.45;91.05;98120.22;5051995;28;20167;-86
2023/08/03 07:34:39;;;;;;;5.30;2.35;;;;;;;22.23;90.62;98081.38;5052083;28;20032;-86
2023/08/03 07:37:05;;;;;;;4.57;2.47;;;;;;;22.56;90.34;98121.59;5052104;28;20025;-87
2023/08/03 07:39:32;;;;;;;7.47;2.75;;;;;;;22.27;89.99;98102.03;5033910;28;20164;-86
2023/08/03 07:41:57;;;;;;;4.75;2.80;;;;;;;22.56;91.39;98101.19;5033962;28;20044;-86
2023/08/03 07:44:23;;;;;;;4.53;2.45;;;;;;;24.45;86.62;98099.81;5051607;28;20020;-86
2023/08/03 07:46:48;;;;;;;4.32;2.00;;;;;;;25.03;81.38;98116.19;5051870;28;20021;-86
2023/08/03 07:49:13;;;;;;;3.28;2.20;;;;;;;24.86;79.96;98113.06;5051878;28;20027;-86
2023/08/03 07:51:39;;;;;;;6.70;2.10;;;;;;;24.69;79.64;98116.25;5052031;28;20415;-86
2023/08/03 07:54:05;;;;;;;4.43;2.15;;;;;;;24.49;79.63;98125.00;5052047;28;20021;-86
2023/08/03 07:56:30;;;;;;;3.53;2.30;;;;;;;25.28;79.60;98129.81;5051796;28;20029;-86
2023/08/03 07:58:56;;;;;;;3.90;2.42;;;;;;;26.77;76.78;98131.91;5033978;28;20071;-87
2023/08/03 08:01:21;;;;;;;2.88;2.10;;;;;;;29.06;70.51;98141.06;5051608;28;20056;-86
2023/08/03 08:03:47;;;;;;;4.72;2.05;;;;;;;31.11;64.44;98095.53;5051937;28;20029;-84
2023/08/03 08:06:17;;;;;;;3.65;2.08;;;;;;;32.99;60.31;98140.59;5051817;28;20051;-85
2023/08/03 08:08:43;;;;;;;2.17;1.80;;;;;;;34.54;57.60;98130.00;5051724;28;20025;-85
2023/08/03 08:11:10;;;;;;;4.15;2.80;;;;;;;35.91;54.98;98154.66;5051684;28;20104;-85
2023/08/03 08:13:35;;;;;;;3.20;2.47;;;;;;;36.48;51.60;98118.25;5008976;28;20505;-85
2023/08/03 08:16:04;;;;;;;5.05;2.17;;;;;;;36.07;52.13;98135.69;5009559;28;20038;-85
2023/08/03 08:18:30;;;;;;;3.65;2.10;;;;;;;34.48;52.46;98127.28;5009363;28;20081;-85
2023/08/03 08:21:00;;;;;;;3.63;2.25;;;;;;;33.54;54.12;98133.34;5010865;28;20073;-84
2023/08/03 08:23:25;;;;;;;4.47;2.78;;;;;;;33.41;54.46;98156.13;4993805;28;20521;-85
2023/08/03 08:25:51;;;;;;;4.25;2.63;;;;;;;33.49;53.41;98127.91;5010828;28;20189;-84
2023/08/03 08:28:17;;;;;;;6.13;2.03;;;;;;;33.46;53.27;98148.16;4997121;28;20046;-85
2023/08/03 08:30:44;;;;;;;2.38;1.80;;;;;;;32.85;53.99;98135.84;5013829;28;20095;-86
2023/08/03 08:33:10;;;;;;;2.00;1.80;;;;;;;32.22;55.10;98151.44;5013725;28;20853;-86
2023/08/03 08:35:35;;;;;;;3.53;1.90;;;;;;;31.37;56.09;98155.19;4997081;28;20113;-86
2023/08/03 08:38:00;;;;;;;4.68;1.92;;;;;;;30.67;57.52;98142.75;5013577;28;20131;-86
2023/08/03 08:40:28;;;;;;;4.47;1.85;;;;;;;29.78;58.44;98122.25;5013522;28;20063;-86
2023/08/03 08:42:56;;;;;;;2.95;1.80;;;;;;;29.30;59.26;98146.53;5014097;28;20456;-86
2023/08/03 08:45:21;;;;;;;3.55;1.70;;;;;;;28.65;61.27;98117.66;5047123;28;20048;-86
2023/08/03 08:47:47;;;;;;;4.18;1.92;;;;;;;28.21;61.36;98094.69;5037380;28;20029;-86
2023/08/03 08:50:12;;;;;;;2.28;1.95;;;;;;;28.12;62.05;98104.84;5037069;28;20056;-86
2023/08/03 08:52:43;;;;;;;3.05;1.77;;;;;;;27.89;62.42;98105.47;5054780;28;20086;-86
2023/08/03 08:55:17;;;;;;;2.67;1.90;;;;;;;27.76;62.68;98130.50;5054958;28;20061;-86
2023/08/03 08:57:42;;;;;;;3.45;2.00;;;;;;;27.60;63.83;98121.16;5055339;28;20025;-86
2023/08/03 09:00:08;;;;;;;4.03;1.98;;;;;;;27.27;62.76;98113.38;5055425;28;20021;-86
2023/08/03 09:02:35;;;;;;;3.30;1.77;;;;;;;27.27;62.94;98140.09;5055184;28;20540;-86
2023/08/03 09:05:19;;;;;;;4.32;1.95;;;;;;;27.08;63.22;98135.66;5055223;28;20037;-85
2023/08/03 09:07:45;;;;;;;5.15;1.73;;;;;;;26.96;63.22;98111.47;5054762;28;20029;-86
2023/08/03 09:10:11;;;;;;;3.22;1.80;;;;;;;26.97;62.28;98106.94;5037243;28;20033;-86
2023/08/03 09:12:38;;;;;;;3.92;1.55;;;;;;;27.19;62.16;98124.31;5054478;28;20036;-86
2023/08/03 09:15:04;;;;;;;4.47;1.80;;;;;;;27.29;62.30;98119.31;5037028;28;20040;-85
2023/08/03 09:17:30;;;;;;;7.30;2.10;;;;;;;27.42;61.45;98137.09;5054739;28;20040;-85
2023/08/03 09:19:55;;;;;;;4.68;1.85;;;;;;;27.52;61.64;98136.66;5054428;28;20021;-86
2023/08/03 09:22:23;;;;;;;2.72;1.83;;;;;;;27.67;61.60;98128.28;5054030;28;20033;-86
2023/08/03 09:25:21;;;;;;;5.28;1.88;;;;;;;27.88;61.43;98151.19;5036502;28;20427;-86
2023/08/03 09:27:54;;;;;;;2.90;1.75;;;;;;;27.84;61.50;98143.59;5012428;28;20046;-88
2023/08/03 09:30:21;;;;;;;2.53;1.45;;;;;;;27.90;62.37;98143.78;5012032;28;20049;-86
2023/08/03 09:32:46;;;;;;;4.93;2.00;;;;;;;28.08;61.76;98154.53;5011771;28;20040;-86
2023/08/03 09:35:16;;;;;;;4.53;1.90;;;;;;;28.17;60.69;98171.94;5011939;28;20033;-86
2023/08/03 09:37:41;;;;;;;2.72;1.65;;;;;;;28.22;61.48;98179.28;4994630;28;20481;-86
2023/08/03 09:40:07;;;;;;;3.83;1.77;;;;;;;28.10;60.44;98165.81;4995494;28;20033;-85
2023/08/03 09:42:33;;;;;;;2.05;1.80;;;;;;;27.96;61.09;98167.78;5011733;28;20436;-86
2023/08/03 09:45:02;;;;;;;6.82;1.80;;;;;;;27.88;61.61;98162.72;5011909;28;20112;-86
2023/08/03 09:47:30;;;;;;;5.72;1.90;;;;;;;27.88;60.43;98165.38;5011657;28;20121;-85
2023/08/03 09:49:56;;;;;;;2.88;1.90;;;;;;;27.89;60.18;98171.56;4995482;28;20034;-86
2023/08/03 09:52:27;;;;;;;4.75;1.70;;;;;;;27.73;59.93;98163.06;4994912;28;20640;-86
2023/08/03 09:55:01;;;;;;;2.55;1.50;;;;;;;27.53;61.23;98171.19;5011814;28;20441;-86
2023/08/03 09:57:29;;;;;;;2.42;1.65;;;;;;;27.18;61.39;98159.25;5011688;28;20088;-86
2023/08/03 10:00:01;;;;;;;2.08;1.60;;;;;;;26.94;62.57;98172.31;5011342;28;20056;-86
2023/08/03 10:02:30;;;;;;;3.80;1.77;;;;;;;26.53;63.40;98151.31;5016382;28;20080;-85
2023/08/03 10:05:02;;;;;;;3.20;1.88;;;;;;;26.42;64.13;98165.25;5035786;28;20087;-85
2023/08/03 10:07:35;;;;;;;2.58;1.50;;;;;;;26.44;64.89;98181.91;5053385;28;20125;-86
2023/08/03 10:10:03;;;;;;;3.25;1.70;;;;;;;26.34;65.32;98151.13;5053617;28;20537;-85
2023/08/03 10:12:40;;;;;;;2.38;1.70;;;;;;;26.56;65.07;98182.94;5052967;28;20040;-85
2023/08/03 10:15:09;;;;;;;2.80;1.50;;;;;;;26.52;65.57;98168.38;5054033;28;20029;-85
2023/08/03 10:17:35;;;;;;;2.90;1.98;;;;;;;26.81;65.19;98193.75;5053987;28;20403;-85
2023/08/03 10:20:03;;;;;;;2.60;1.38;;;;;;;26.83;63.83;98171.13;5054347;28;20053;-85
2023/08/03 10:22:29;;;;;;;2.22;1.30;;;;;;;27.06;61.16;98170.63;5054485;28;20025;-85
2023/08/03 10:25:19;;;;;;;3.15;1.42;;;;;;;27.30;61.06;98201.13;5064697;28;20059;-85
2023/08/03 10:28:11;;;;;;;3.05;1.40;;;;;;;27.47;59.64;98187.25;5074296;28;20036;-85
2023/08/03 10:31:03;;;;;;;6.03;1.50;;;;;;;27.58;58.85;98189.25;5056650;28;20021;-85
2023/08/03 10:33:50;;;;;;;3.67;1.40;;;;;;;27.60;59.10;98176.47;5053633;28;20029;-85
2023/08/03 10:36:31;;;;;;;1.40;1.27;;;;;;;27.58;57.70;98182.06;5053558;28;20111;-85
2023/08/03 10:38:57;;;;;;;4.07;1.57;;;;;;;27.27;57.22;98150.78;5065197;28;20025;-84
2023/08/03 10:41:27;;;;;;;2.17;1.42;;;;;;;27.19;57.72;98155.56;5035577;28;20286;-85
2023/08/03 10:44:06;;;;;;;3.33;1.30;;;;;;;27.34;56.88;98190.84;5053213;28;20049;-85
2023/08/03 10:46:39;;;;;;;2.50;1.50;;;;;;;27.39;58.11;98191.03;5052814;28;20029;-85
2023/08/03 10:49:27;;;;;;;2.17;1.25;;;;;;;27.44;57.09;98187.72;5034568;28;20472;-85
2023/08/03 10:52:12;;;;;;;1.42;1.25;;;;;;;27.26;56.74;98164.34;5010819;28;20479;-85
2023/08/03 10:54:37;;;;;;;6.18;1.55;;;;;;;27.25;56.77;98170.75;5010640;28;20089;-85
2023/08/03 10:57:18;;;;;;;2.92;1.67;;;;;;;27.41;56.88;98196.16;5010873;28;20042;-85
2023/08/03 10:59:57;;;;;;;3.85;1.63;;;;;;;27.42;57.98;98187.09;4995554;28;20058;-85
2023/08/03 11:02:29;;;;;;;1.85;1.45;;;;;;;27.46;58.83;98196.31;4994294;28;20034;-84
2023/08/03 11:05:06;;;;;;;2.05;1.30;;;;;;;27.27;59.41;98174.03;5010281;28;20040;-85
2023/08/03 11:07:42;;;;;;;4.43;1.95;;;;;;;27.34;59.47;98190.84;5010704;28;20042;-85
2023/08/03 11:10:10;;;;;;;7.10;2.03;;;;;;;27.28;59.59;98187.19;5010960;28;20094;-85
2023/08/03 11:12:36;;;;;;;2.63;1.50;;;;;;;27.04;59.23;98172.66;5010540;28;20069;-85
2023/08/03 11:15:02;;;;;;;8.15;1.77;;;;;;;27.09;60.38;98199.63;5010856;28;20045;-85
2023/08/03 11:17:29;;;;;;;2.28;1.80;;;;;;;27.08;60.68;98213.16;4994033;28;20030;-84
2023/08/03 11:19:56;;;;;;;3.10;1.80;;;;;;;26.85;60.81;98186.94;5010603;28;20034;-85
2023/08/03 11:22:23;;;;;;;2.40;1.65;;;;;;;26.65;61.26;98173.66;5010374;28;20499;-84
2023/08/03 11:24:51;;;;;;;3.45;1.80;;;;;;;26.79;61.82;98201.94;5010032;28;20034;-85
2023/08/03 11:27:17;;;;;;;2.70;1.85;;;;;;;26.75;61.76;98211.41;5010275;28;20030;-85